sensor_id;sensor_type;location;lat;lon;timestamp;temperature;humidity
19588;DHT22;9940;47.252;8.696;2023-04-24T00:00:47;12.90;99.90
19588;DHT22;9940;47.252;8.696;2023-04-24T00:03:17;12.80;99.90
19588;DHT22;9940;47.252;8.696;2023-04-24T00:05:50;12.80;99.90
19588;DHT22;9940;47.252;8.696;2023-04-24T00:08:17;12.80;99.90
19588;DHT22;9940;47.252;8.696;2023-04-24T00:10:42;12.80;99.90
19588;DHT22;9940;47.252;8.696;2023-04-24T00:13:08;12.80;99.90
19588;DHT22;9940;47.252;8.696;2023-04-24T00:15:34;12.80;99.90
19588;DHT22;9940;47.252;8.696;2023-04-24T00:17:59;12.80;99.90
19588;DHT22;9940;47.252;8.696;2023-04-24T00:20:28;12.80;99.90
19588;DHT22;9940;47.252;8.696;2023-04-24T00:22:55;12.80;99.90
19588;DHT22;9940;47.252;8.696;2023-04-24T00:25:23;12.80;99.90
19588;DHT22;9940;47.252;8.696;2023-04-24T00:27:48;12.80;99.90
19588;DHT22;9940;47.252;8.696;2023-04-24T00:30:14;12.70;99.90
19588;DHT22;9940;47.252;8.696;2023-04-24T00:32:40;12.80;99.90
19588;DHT22;9940;47.252;8.696;2023-04-24T00:35:06;12.70;99.90
19588;DHT22;9940;47.252;8.696;2023-04-24T00:37:34;12.70;99.90
19588;DHT22;9940;47.252;8.696;2023-04-24T00:40:00;12.70;99.90
19588;DHT22;9940;47.252;8.696;2023-04-24T00:42:28;12.60;99.90
19588;DHT22;9940;47.252;8.696;2023-04-24T00:44:54;12.60;99.90
19588;DHT22;9940;47.252;8.696;2023-04-24T00:47:19;12.50;99.90
19588;DHT22;9940;47.252;8.696;2023-04-24T00:49:48;12.50;99.90
19588;DHT22;9940;47.252;8.696;2023-04-24T00:52:14;12.50;99.90
19588;DHT22;9940;47.252;8.696;2023-04-24T00:54:45;12.50;99.90
19588;DHT22;9940;47.252;8.696;2023-04-24T00:57:10;12.50;99.90
19588;DHT22;9940;47.252;8.696;2023-04-24T00:59:39;12.40;99.90
19588;DHT22;9940;47.252;8.696;2023-04-24T01:02:07;12.40;99.90
19588;DHT22;9940;47.252;8.696;2023-04-24T01:04:32;12.30;99.90
19588;DHT22;9940;47.252;8.696;2023-04-24T01:06:58;12.30;99.90
19588;DHT22;9940;47.252;8.696;2023-04-24T01:09:24;12.20;99.90
19588;DHT22;9940;47.252;8.696;2023-04-24T01:11:50;12.20;99.90
19588;DHT22;9940;47.252;8.696;2023-04-24T01:14:16;12.30;99.90
19588;DHT22;9940;47.252;8.696;2023-04-24T01:16:44;12.20;99.90
19588;DHT22;9940;47.252;8.696;2023-04-24T01:19:13;12.20;99.90
19588;DHT22;9940;47.252;8.696;2023-04-24T01:21:40;12.10;99.90
19588;DHT22;9940;47.252;8.696;2023-04-24T01:24:07;12.10;99.90
19588;DHT22;9940;47.252;8.696;2023-04-24T01:26:35;12.10;99.90
19588;DHT22;9940;47.252;8.696;2023-04-24T01:29:03;12.10;99.90
19588;DHT22;9940;47.252;8.696;2023-04-24T01:31:29;12.10;99.90
19588;DHT22;9940;47.252;8.696;2023-04-24T01:33:56;12.10;99.90
19588;DHT22;9940;47.252;8.696;2023-04-24T01:36:22;12.10;99.90
19588;DHT22;9940;47.252;8.696;2023-04-24T01:38:49;12.10;99.90
19588;DHT22;9940;47.252;8.696;2023-04-24T01:41:18;12.10;99.90
19588;DHT22;9940;47.252;8.696;2023-04-24T01:43:46;12.10;99.90
19588;DHT22;9940;47.252;8.696;2023-04-24T01:46:12;12.10;99.90
19588;DHT22;9940;47.252;8.696;2023-04-24T01:48:38;12.10;99.90
19588;DHT22;9940;47.252;8.696;2023-04-24T01:51:03;12.10;99.90
19588;DHT22;9940;47.252;8.696;2023-04-24T01:53:29;12.10;99.90
19588;DHT22;9940;47.252;8.696;2023-04-24T01:55:55;12.10;99.90
19588;DHT22;9940;47.252;8.696;2023-04-24T01:58:23;12.20;99.90
19588;DHT22;9940;47.252;8.696;2023-04-24T02:00:49;12.20;99.90
19588;DHT22;9940;47.252;8.696;2023-04-24T02:03:14;12.20;99.90
19588;DHT22;9940;47.252;8.696;2023-04-24T02:05:44;12.30;99.90
19588;DHT22;9940;47.252;8.696;2023-04-24T02:08:12;12.30;99.90
19588;DHT22;9940;47.252;8.696;2023-04-24T02:10:40;12.30;99.90
19588;DHT22;9940;47.252;8.696;2023-04-24T02:13:08;12.30;99.90
19588;DHT22;9940;47.252;8.696;2023-04-24T02:15:36;12.40;99.90
19588;DHT22;9940;47.252;8.696;2023-04-24T02:18:04;12.40;99.90
19588;DHT22;9940;47.252;8.696;2023-04-24T02:20:29;12.40;99.90
19588;DHT22;9940;47.252;8.696;2023-04-24T02:22:55;12.30;99.90
19588;DHT22;9940;47.252;8.696;2023-04-24T02:25:23;12.30;99.90
19588;DHT22;9940;47.252;8.696;2023-04-24T02:27:51;12.30;99.90
19588;DHT22;9940;47.252;8.696;2023-04-24T02:30:17;12.30;99.90
19588;DHT22;9940;47.252;8.696;2023-04-24T02:32:42;12.30;99.90
19588;DHT22;9940;47.252;8.696;2023-04-24T02:35:08;12.20;99.90
19588;DHT22;9940;47.252;8.696;2023-04-24T02:37:34;12.20;99.90
19588;DHT22;9940;47.252;8.696;2023-04-24T02:40:02;12.20;99.90
19588;DHT22;9940;47.252;8.696;2023-04-24T02:42:28;12.20;99.90
19588;DHT22;9940;47.252;8.696;2023-04-24T02:44:53;12.20;99.90
19588;DHT22;9940;47.252;8.696;2023-04-24T02:47:19;12.10;99.90
19588;DHT22;9940;47.252;8.696;2023-04-24T02:49:45;12.10;99.90
19588;DHT22;9940;47.252;8.696;2023-04-24T02:52:10;12.10;99.90
19588;DHT22;9940;47.252;8.696;2023-04-24T02:54:38;12.10;99.90
19588;DHT22;9940;47.252;8.696;2023-04-24T02:57:04;12.10;99.90
19588;DHT22;9940;47.252;8.696;2023-04-24T02:59:32;12.10;99.90
19588;DHT22;9940;47.252;8.696;2023-04-24T03:02:00;12.10;99.90
19588;DHT22;9940;47.252;8.696;2023-04-24T03:04:25;12.00;99.90
19588;DHT22;9940;47.252;8.696;2023-04-24T03:06:54;12.00;99.90
19588;DHT22;9940;47.252;8.696;2023-04-24T03:09:21;12.00;99.90
19588;DHT22;9940;47.252;8.696;2023-04-24T03:11:46;12.00;99.90
19588;DHT22;9940;47.252;8.696;2023-04-24T03:14:12;12.00;99.90
19588;DHT22;9940;47.252;8.696;2023-04-24T03:16:42;12.00;99.90
19588;DHT22;9940;47.252;8.696;2023-04-24T03:19:08;12.00;99.90
19588;DHT22;9940;47.252;8.696;2023-04-24T03:21:33;12.00;99.90
19588;DHT22;9940;47.252;8.696;2023-04-24T03:24:01;11.90;99.90
19588;DHT22;9940;47.252;8.696;2023-04-24T03:26:29;11.90;99.90
19588;DHT22;9940;47.252;8.696;2023-04-24T03:28:54;11.90;99.90
19588;DHT22;9940;47.252;8.696;2023-04-24T03:31:20;11.90;99.90
19588;DHT22;9940;47.252;8.696;2023-04-24T03:33:48;11.90;99.90
19588;DHT22;9940;47.252;8.696;2023-04-24T03:36:14;11.90;99.90
19588;DHT22;9940;47.252;8.696;2023-04-24T03:38:40;11.90;99.90
19588;DHT22;9940;47.252;8.696;2023-04-24T03:41:06;11.80;99.90
19588;DHT22;9940;47.252;8.696;2023-04-24T03:43:33;11.80;99.90
19588;DHT22;9940;47.252;8.696;2023-04-24T03:46:00;11.80;99.90
19588;DHT22;9940;47.252;8.696;2023-04-24T03:48:25;11.80;99.90
19588;DHT22;9940;47.252;8.696;2023-04-24T03:50:55;11.80;99.90
19588;DHT22;9940;47.252;8.696;2023-04-24T03:53:21;11.80;99.90
19588;DHT22;9940;47.252;8.696;2023-04-24T03:55:47;11.80;99.90
19588;DHT22;9940;47.252;8.696;2023-04-24T03:58:12;11.80;99.90
19588;DHT22;9940;47.252;8.696;2023-04-24T04:00:41;11.80;99.90
19588;DHT22;9940;47.252;8.696;2023-04-24T04:03:12;11.70;99.90
19588;DHT22;9940;47.252;8.696;2023-04-24T04:05:41;11.70;99.90
19588;DHT22;9940;47.252;8.696;2023-04-24T04:08:06;11.70;99.90
19588;DHT22;9940;47.252;8.696;2023-04-24T04:10:32;11.70;99.90
19588;DHT22;9940;47.252;8.696;2023-04-24T04:12:57;11.70;99.90
19588;DHT22;9940;47.252;8.696;2023-04-24T04:15:23;11.70;99.90
19588;DHT22;9940;47.252;8.696;2023-04-24T04:17:49;11.70;99.90
19588;DHT22;9940;47.252;8.696;2023-04-24T04:20:17;11.70;99.90
19588;DHT22;9940;47.252;8.696;2023-04-24T04:22:42;11.70;99.90
19588;DHT22;9940;47.252;8.696;2023-04-24T04:25:08;11.70;99.90
19588;DHT22;9940;47.252;8.696;2023-04-24T04:27:36;11.70;99.90
19588;DHT22;9940;47.252;8.696;2023-04-24T04:30:02;11.70;99.90
19588;DHT22;9940;47.252;8.696;2023-04-24T04:32:34;11.70;99.90
19588;DHT22;9940;47.252;8.696;2023-04-24T04:35:00;11.70;99.90
19588;DHT22;9940;47.252;8.696;2023-04-24T04:37:30;11.70;99.90
19588;DHT22;9940;47.252;8.696;2023-04-24T04:39:59;11.70;99.90
19588;DHT22;9940;47.252;8.696;2023-04-24T04:42:25;11.70;99.90
19588;DHT22;9940;47.252;8.696;2023-04-24T04:44:54;11.70;99.90
19588;DHT22;9940;47.252;8.696;2023-04-24T04:47:22;11.70;99.90
19588;DHT22;9940;47.252;8.696;2023-04-24T04:49:48;11.70;99.90
19588;DHT22;9940;47.252;8.696;2023-04-24T04:52:14;11.70;99.90
19588;DHT22;9940;47.252;8.696;2023-04-24T04:54:42;11.60;99.90
19588;DHT22;9940;47.252;8.696;2023-04-24T04:57:07;11.60;99.90
19588;DHT22;9940;47.252;8.696;2023-04-24T04:59:36;11.50;99.90
19588;DHT22;9940;47.252;8.696;2023-04-24T05:02:06;11.50;99.90
19588;DHT22;9940;47.252;8.696;2023-04-24T05:04:31;11.50;99.90
19588;DHT22;9940;47.252;8.696;2023-04-24T05:06:59;11.50;99.90
19588;DHT22;9940;47.252;8.696;2023-04-24T05:09:25;11.50;99.90
19588;DHT22;9940;47.252;8.696;2023-04-24T05:11:53;11.50;99.90
19588;DHT22;9940;47.252;8.696;2023-04-24T05:14:21;11.50;99.90
19588;DHT22;9940;47.252;8.696;2023-04-24T05:16:47;11.50;99.90
19588;DHT22;9940;47.252;8.696;2023-04-24T05:19:15;11.50;99.90
19588;DHT22;9940;47.252;8.696;2023-04-24T05:21:41;11.50;99.90
19588;DHT22;9940;47.252;8.696;2023-04-24T05:24:07;11.50;99.90
19588;DHT22;9940;47.252;8.696;2023-04-24T05:26:32;11.50;99.90
19588;DHT22;9940;47.252;8.696;2023-04-24T05:28:58;11.50;99.90
19588;DHT22;9940;47.252;8.696;2023-04-24T05:31:24;11.60;99.90
19588;DHT22;9940;47.252;8.696;2023-04-24T05:33:50;11.60;99.90
19588;DHT22;9940;47.252;8.696;2023-04-24T05:36:16;11.60;99.90
19588;DHT22;9940;47.252;8.696;2023-04-24T05:38:42;11.70;99.90
19588;DHT22;9940;47.252;8.696;2023-04-24T05:41:09;11.80;99.90
19588;DHT22;9940;47.252;8.696;2023-04-24T05:43:39;11.90;99.90
19588;DHT22;9940;47.252;8.696;2023-04-24T05:46:05;12.00;99.90
19588;DHT22;9940;47.252;8.696;2023-04-24T05:48:30;12.00;99.90
19588;DHT22;9940;47.252;8.696;2023-04-24T05:50:56;11.80;99.90
19588;DHT22;9940;47.252;8.696;2023-04-24T05:53:22;11.70;99.90
19588;DHT22;9940;47.252;8.696;2023-04-24T05:55:48;11.60;99.90
19588;DHT22;9940;47.252;8.696;2023-04-24T05:58:16;11.50;99.90
19588;DHT22;9940;47.252;8.696;2023-04-24T06:00:41;11.50;99.90
19588;DHT22;9940;47.252;8.696;2023-04-24T06:03:11;11.40;99.90
19588;DHT22;9940;47.252;8.696;2023-04-24T06:05:37;11.40;99.90
19588;DHT22;9940;47.252;8.696;2023-04-24T06:08:02;11.30;99.90
19588;DHT22;9940;47.252;8.696;2023-04-24T06:10:28;11.30;99.90
19588;DHT22;9940;47.252;8.696;2023-04-24T06:12:54;11.30;99.90
19588;DHT22;9940;47.252;8.696;2023-04-24T06:15:21;11.20;99.90
19588;DHT22;9940;47.252;8.696;2023-04-24T06:17:49;11.20;99.90
19588;DHT22;9940;47.252;8.696;2023-04-24T06:20:15;11.10;99.90
19588;DHT22;9940;47.252;8.696;2023-04-24T06:22:40;11.00;99.90
19588;DHT22;9940;47.252;8.696;2023-04-24T06:25:06;11.00;99.90
19588;DHT22;9940;47.252;8.696;2023-04-24T06:27:35;11.00;99.90
19588;DHT22;9940;47.252;8.696;2023-04-24T06:30:03;10.90;99.90
19588;DHT22;9940;47.252;8.696;2023-04-24T06:32:34;10.90;99.90
19588;DHT22;9940;47.252;8.696;2023-04-24T06:34:59;10.90;99.90
19588;DHT22;9940;47.252;8.696;2023-04-24T06:37:25;11.00;99.90
19588;DHT22;9940;47.252;8.696;2023-04-24T06:39:51;11.00;99.90
19588;DHT22;9940;47.252;8.696;2023-04-24T06:42:17;11.10;99.90
19588;DHT22;9940;47.252;8.696;2023-04-24T06:44:43;11.10;99.90
19588;DHT22;9940;47.252;8.696;2023-04-24T06:47:12;11.20;99.90
19588;DHT22;9940;47.252;8.696;2023-04-24T06:49:39;11.20;99.90
19588;DHT22;9940;47.252;8.696;2023-04-24T06:52:10;11.20;99.90
19588;DHT22;9940;47.252;8.696;2023-04-24T06:54:35;11.20;99.90
19588;DHT22;9940;47.252;8.696;2023-04-24T06:57:01;11.20;99.90
19588;DHT22;9940;47.252;8.696;2023-04-24T06:59:28;11.20;99.90
19588;DHT22;9940;47.252;8.696;2023-04-24T07:01:55;11.20;99.90
19588;DHT22;9940;47.252;8.696;2023-04-24T07:04:21;11.30;99.90
19588;DHT22;9940;47.252;8.696;2023-04-24T07:06:47;11.30;99.90
19588;DHT22;9940;47.252;8.696;2023-04-24T07:09:16;11.40;99.90
19588;DHT22;9940;47.252;8.696;2023-04-24T07:11:45;11.50;99.90
19588;DHT22;9940;47.252;8.696;2023-04-24T07:14:11;11.50;99.90
19588;DHT22;9940;47.252;8.696;2023-04-24T07:16:37;11.60;99.90
19588;DHT22;9940;47.252;8.696;2023-04-24T07:19:05;11.60;99.90
19588;DHT22;9940;47.252;8.696;2023-04-24T07:21:31;11.60;99.90
19588;DHT22;9940;47.252;8.696;2023-04-24T07:24:02;11.60;99.90
19588;DHT22;9940;47.252;8.696;2023-04-24T07:26:29;11.70;99.90
19588;DHT22;9940;47.252;8.696;2023-04-24T07:28:55;11.60;99.90
19588;DHT22;9940;47.252;8.696;2023-04-24T07:31:21;11.60;99.90
19588;DHT22;9940;47.252;8.696;2023-04-24T07:33:48;11.60;99.90
19588;DHT22;9940;47.252;8.696;2023-04-24T07:36:13;11.60;99.90
19588;DHT22;9940;47.252;8.696;2023-04-24T07:38:47;11.50;99.90
19588;DHT22;9940;47.252;8.696;2023-04-24T07:41:13;11.40;99.90
19588;DHT22;9940;47.252;8.696;2023-04-24T07:43:39;11.10;99.90
19588;DHT22;9940;47.252;8.696;2023-04-24T07:46:05;10.90;99.90
19588;DHT22;9940;47.252;8.696;2023-04-24T07:48:33;10.60;99.90
19588;DHT22;9940;47.252;8.696;2023-04-24T07:51:01;10.40;99.90
19588;DHT22;9940;47.252;8.696;2023-04-24T07:53:27;10.20;99.90
19588;DHT22;9940;47.252;8.696;2023-04-24T07:55:56;10.00;99.90
19588;DHT22;9940;47.252;8.696;2023-04-24T07:58:23;9.90;99.90
19588;DHT22;9940;47.252;8.696;2023-04-24T08:00:49;9.80;99.90
19588;DHT22;9940;47.252;8.696;2023-04-24T08:03:15;9.80;99.90
19588;DHT22;9940;47.252;8.696;2023-04-24T08:05:44;9.80;99.90
19588;DHT22;9940;47.252;8.696;2023-04-24T08:08:09;9.80;99.90
19588;DHT22;9940;47.252;8.696;2023-04-24T08:10:35;9.80;99.90
19588;DHT22;9940;47.252;8.696;2023-04-24T08:13:03;9.80;99.90
19588;DHT22;9940;47.252;8.696;2023-04-24T08:15:30;9.90;99.90
19588;DHT22;9940;47.252;8.696;2023-04-24T08:17:59;9.90;99.90
19588;DHT22;9940;47.252;8.696;2023-04-24T08:20:24;10.00;99.90
19588;DHT22;9940;47.252;8.696;2023-04-24T08:22:50;10.10;99.90
19588;DHT22;9940;47.252;8.696;2023-04-24T08:25:15;10.30;99.90
19588;DHT22;9940;47.252;8.696;2023-04-24T08:27:46;10.40;99.90
19588;DHT22;9940;47.252;8.696;2023-04-24T08:30:12;10.60;99.90
19588;DHT22;9940;47.252;8.696;2023-04-24T08:32:38;10.70;99.90
19588;DHT22;9940;47.252;8.696;2023-04-24T08:35:04;11.00;99.90
19588;DHT22;9940;47.252;8.696;2023-04-24T08:37:34;11.30;99.90
19588;DHT22;9940;47.252;8.696;2023-04-24T08:40:00;11.50;99.90
19588;DHT22;9940;47.252;8.696;2023-04-24T08:42:28;11.70;99.90
19588;DHT22;9940;47.252;8.696;2023-04-24T08:44:57;11.90;99.90
19588;DHT22;9940;47.252;8.696;2023-04-24T08:47:23;12.00;99.90
19588;DHT22;9940;47.252;8.696;2023-04-24T08:49:51;12.20;99.90
19588;DHT22;9940;47.252;8.696;2023-04-24T08:52:20;12.30;99.90
19588;DHT22;9940;47.252;8.696;2023-04-24T08:54:47;12.40;99.90
19588;DHT22;9940;47.252;8.696;2023-04-24T08:57:14;12.50;99.90
19588;DHT22;9940;47.252;8.696;2023-04-24T08:59:40;12.50;99.90
19588;DHT22;9940;47.252;8.696;2023-04-24T09:02:10;12.50;99.90
19588;DHT22;9940;47.252;8.696;2023-04-24T09:04:40;12.50;99.90
19588;DHT22;9940;47.252;8.696;2023-04-24T09:07:09;12.30;99.90
19588;DHT22;9940;47.252;8.696;2023-04-24T09:09:38;12.20;99.90
19588;DHT22;9940;47.252;8.696;2023-04-24T09:12:06;12.20;99.90
19588;DHT22;9940;47.252;8.696;2023-04-24T09:14:34;12.30;99.90
19588;DHT22;9940;47.252;8.696;2023-04-24T09:17:04;12.40;99.90
19588;DHT22;9940;47.252;8.696;2023-04-24T09:19:29;12.50;99.90
19588;DHT22;9940;47.252;8.696;2023-04-24T09:21:56;12.60;99.90
19588;DHT22;9940;47.252;8.696;2023-04-24T09:24:21;12.60;99.90
19588;DHT22;9940;47.252;8.696;2023-04-24T09:26:57;12.70;99.90
19588;DHT22;9940;47.252;8.696;2023-04-24T09:29:24;12.60;99.90
19588;DHT22;9940;47.252;8.696;2023-04-24T09:31:50;12.60;99.90
19588;DHT22;9940;47.252;8.696;2023-04-24T09:34:24;12.50;99.90
19588;DHT22;9940;47.252;8.696;2023-04-24T09:36:50;12.50;99.90
19588;DHT22;9940;47.252;8.696;2023-04-24T09:39:19;12.50;99.90
19588;DHT22;9940;47.252;8.696;2023-04-24T09:44:18;12.50;99.90
19588;DHT22;9940;47.252;8.696;2023-04-24T09:46:50;12.60;99.50
19588;DHT22;9940;47.252;8.696;2023-04-24T09:49:21;12.60;98.60
19588;DHT22;9940;47.252;8.696;2023-04-24T09:51:47;12.60;98.10
19588;DHT22;9940;47.252;8.696;2023-04-24T09:54:19;12.60;97.40
19588;DHT22;9940;47.252;8.696;2023-04-24T09:56:47;12.60;97.00
19588;DHT22;9940;47.252;8.696;2023-04-24T09:59:19;12.70;96.50
19588;DHT22;9940;47.252;8.696;2023-04-24T10:01:45;12.90;95.90
19588;DHT22;9940;47.252;8.696;2023-04-24T10:06:53;13.20;94.40
19588;DHT22;9940;47.252;8.696;2023-04-24T10:09:23;13.30;93.60
19588;DHT22;9940;47.252;8.696;2023-04-24T10:11:54;13.30;93.00
19588;DHT22;9940;47.252;8.696;2023-04-24T10:14:22;13.30;92.40
19588;DHT22;9940;47.252;8.696;2023-04-24T10:16:49;13.20;91.90
19588;DHT22;9940;47.252;8.696;2023-04-24T10:19:17;13.20;91.60
19588;DHT22;9940;47.252;8.696;2023-04-24T10:21:46;13.10;91.40
19588;DHT22;9940;47.252;8.696;2023-04-24T10:24:14;13.00;91.40
19588;DHT22;9940;47.252;8.696;2023-04-24T10:26:44;13.10;91.50
19588;DHT22;9940;47.252;8.696;2023-04-24T10:29:14;13.10;90.90
19588;DHT22;9940;47.252;8.696;2023-04-24T10:31:43;13.10;90.10
19588;DHT22;9940;47.252;8.696;2023-04-24T10:34:11;13.10;88.50
19588;DHT22;9940;47.252;8.696;2023-04-24T10:36:48;13.10;87.70
19588;DHT22;9940;47.252;8.696;2023-04-24T10:39:16;13.10;86.60
19588;DHT22;9940;47.252;8.696;2023-04-24T10:41:47;13.20;85.10
19588;DHT22;9940;47.252;8.696;2023-04-24T10:44:15;13.30;84.30
19588;DHT22;9940;47.252;8.696;2023-04-24T10:46:45;13.30;84.00
19588;DHT22;9940;47.252;8.696;2023-04-24T10:49:14;13.40;84.10
19588;DHT22;9940;47.252;8.696;2023-04-24T10:51:50;13.50;83.70
19588;DHT22;9940;47.252;8.696;2023-04-24T10:54:33;13.60;82.70
19588;DHT22;9940;47.252;8.696;2023-04-24T10:59:44;13.60;80.50
19588;DHT22;9940;47.252;8.696;2023-04-24T11:02:10;13.60;80.30
19588;DHT22;9940;47.252;8.696;2023-04-24T11:04:38;13.70;80.00
19588;DHT22;9940;47.252;8.696;2023-04-24T11:07:06;13.70;80.00
19588;DHT22;9940;47.252;8.696;2023-04-24T11:09:32;13.80;80.10
19588;DHT22;9940;47.252;8.696;2023-04-24T11:12:08;13.70;79.20
19588;DHT22;9940;47.252;8.696;2023-04-24T11:17:35;13.50;76.50
19588;DHT22;9940;47.252;8.696;2023-04-24T11:20:07;13.50;76.80
19588;DHT22;9940;47.252;8.696;2023-04-24T11:22:35;13.50;77.00
19588;DHT22;9940;47.252;8.696;2023-04-24T11:25:04;13.50;76.90
19588;DHT22;9940;47.252;8.696;2023-04-24T11:27:31;13.50;76.50
19588;DHT22;9940;47.252;8.696;2023-04-24T11:35:00;14.70;73.50
19588;DHT22;9940;47.252;8.696;2023-04-24T11:37:34;16.00;70.30
19588;DHT22;9940;47.252;8.696;2023-04-24T11:40:00;16.20;67.70
19588;DHT22;9940;47.252;8.696;2023-04-24T11:42:26;15.80;67.40
19588;DHT22;9940;47.252;8.696;2023-04-24T11:44:53;15.50;67.50
19588;DHT22;9940;47.252;8.696;2023-04-24T11:47:30;15.10;68.00
19588;DHT22;9940;47.252;8.696;2023-04-24T11:49:56;14.90;68.70
19588;DHT22;9940;47.252;8.696;2023-04-24T11:52:22;14.60;69.30
19588;DHT22;9940;47.252;8.696;2023-04-24T11:54:50;14.50;69.90
19588;DHT22;9940;47.252;8.696;2023-04-24T11:57:18;14.40;70.20
19588;DHT22;9940;47.252;8.696;2023-04-24T11:59:46;14.30;70.90
19588;DHT22;9940;47.252;8.696;2023-04-24T12:02:23;14.60;71.40
19588;DHT22;9940;47.252;8.696;2023-04-24T12:04:49;14.80;71.10
19588;DHT22;9940;47.252;8.696;2023-04-24T12:07:14;14.80;70.90
19588;DHT22;9940;47.252;8.696;2023-04-24T12:09:50;14.80;71.00
19588;DHT22;9940;47.252;8.696;2023-04-24T12:12:19;14.90;71.20
19588;DHT22;9940;47.252;8.696;2023-04-24T12:14:58;15.00;70.80
19588;DHT22;9940;47.252;8.696;2023-04-24T12:17:30;14.90;70.40
19588;DHT22;9940;47.252;8.696;2023-04-24T12:20:08;14.80;70.30
19588;DHT22;9940;47.252;8.696;2023-04-24T12:22:54;14.70;70.70
19588;DHT22;9940;47.252;8.696;2023-04-24T12:25:27;14.70;70.60
19588;DHT22;9940;47.252;8.696;2023-04-24T12:30:44;14.50;70.00
19588;DHT22;9940;47.252;8.696;2023-04-24T12:33:20;14.50;70.20
19588;DHT22;9940;47.252;8.696;2023-04-24T12:35:51;14.60;70.10
19588;DHT22;9940;47.252;8.696;2023-04-24T12:38:22;14.70;70.00
19588;DHT22;9940;47.252;8.696;2023-04-24T12:41:05;14.80;69.60
19588;DHT22;9940;47.252;8.696;2023-04-24T12:43:34;14.90;69.50
19588;DHT22;9940;47.252;8.696;2023-04-24T12:46:02;15.20;69.30
19588;DHT22;9940;47.252;8.696;2023-04-24T12:48:29;15.80;68.70
19588;DHT22;9940;47.252;8.696;2023-04-24T12:50:56;16.30;68.30
19588;DHT22;9940;47.252;8.696;2023-04-24T12:53:22;17.10;67.40
19588;DHT22;9940;47.252;8.696;2023-04-24T12:55:48;17.70;66.10
19588;DHT22;9940;47.252;8.696;2023-04-24T12:58:23;18.10;64.90
19588;DHT22;9940;47.252;8.696;2023-04-24T13:00:51;18.10;63.60
19588;DHT22;9940;47.252;8.696;2023-04-24T13:03:18;17.90;63.40
19588;DHT22;9940;47.252;8.696;2023-04-24T13:05:46;17.70;63.30
19588;DHT22;9940;47.252;8.696;2023-04-24T13:08:11;17.40;63.30
19588;DHT22;9940;47.252;8.696;2023-04-24T13:10:40;17.10;63.30
19588;DHT22;9940;47.252;8.696;2023-04-24T13:13:06;16.80;63.40
19588;DHT22;9940;47.252;8.696;2023-04-24T13:15:32;16.60;63.60
19588;DHT22;9940;47.252;8.696;2023-04-24T13:17:58;16.30;63.60
19588;DHT22;9940;47.252;8.696;2023-04-24T13:20:23;16.10;63.50
19588;DHT22;9940;47.252;8.696;2023-04-24T13:22:51;15.90;63.60
19588;DHT22;9940;47.252;8.696;2023-04-24T13:25:19;15.80;63.80
19588;DHT22;9940;47.252;8.696;2023-04-24T13:27:48;15.60;63.80
19588;DHT22;9940;47.252;8.696;2023-04-24T13:30:13;15.70;63.80
19588;DHT22;9940;47.252;8.696;2023-04-24T13:32:39;16.00;63.70
19588;DHT22;9940;47.252;8.696;2023-04-24T13:35:10;16.50;63.10
19588;DHT22;9940;47.252;8.696;2023-04-24T13:37:35;16.80;62.50
19588;DHT22;9940;47.252;8.696;2023-04-24T13:40:01;16.60;62.30
19588;DHT22;9940;47.252;8.696;2023-04-24T13:42:29;16.40;62.50
19588;DHT22;9940;47.252;8.696;2023-04-24T13:44:55;16.20;62.80
19588;DHT22;9940;47.252;8.696;2023-04-24T13:47:21;16.00;63.10
19588;DHT22;9940;47.252;8.696;2023-04-24T13:49:49;15.80;63.50
19588;DHT22;9940;47.252;8.696;2023-04-24T13:52:17;15.70;64.10
19588;DHT22;9940;47.252;8.696;2023-04-24T13:54:43;15.90;64.60
19588;DHT22;9940;47.252;8.696;2023-04-24T13:57:13;16.20;64.50
19588;DHT22;9940;47.252;8.696;2023-04-24T13:59:41;16.40;64.30
19588;DHT22;9940;47.252;8.696;2023-04-24T14:02:11;16.40;64.20
19588;DHT22;9940;47.252;8.696;2023-04-24T14:04:40;16.70;64.50
19588;DHT22;9940;47.252;8.696;2023-04-24T14:07:05;17.10;64.10
19588;DHT22;9940;47.252;8.696;2023-04-24T14:09:35;17.20;63.50
19588;DHT22;9940;47.252;8.696;2023-04-24T14:12:01;17.00;63.10
19588;DHT22;9940;47.252;8.696;2023-04-24T14:14:29;16.70;62.90
19588;DHT22;9940;47.252;8.696;2023-04-24T14:16:55;16.50;63.00
19588;DHT22;9940;47.252;8.696;2023-04-24T14:19:21;16.30;63.40
19588;DHT22;9940;47.252;8.696;2023-04-24T14:21:47;16.20;63.80
19588;DHT22;9940;47.252;8.696;2023-04-24T14:24:12;16.40;63.90
19588;DHT22;9940;47.252;8.696;2023-04-24T14:26:40;17.40;63.70
19588;DHT22;9940;47.252;8.696;2023-04-24T14:29:09;18.40;62.80
19588;DHT22;9940;47.252;8.696;2023-04-24T14:31:35;19.10;61.30
19588;DHT22;9940;47.252;8.696;2023-04-24T14:34:00;19.40;60.10
19588;DHT22;9940;47.252;8.696;2023-04-24T14:36:26;19.50;59.60
19588;DHT22;9940;47.252;8.696;2023-04-24T14:38:51;19.60;58.80
19588;DHT22;9940;47.252;8.696;2023-04-24T14:41:17;19.40;58.10
19588;DHT22;9940;47.252;8.696;2023-04-24T14:43:43;19.00;58.10
19588;DHT22;9940;47.252;8.696;2023-04-24T14:46:10;18.90;58.20
19588;DHT22;9940;47.252;8.696;2023-04-24T14:48:36;18.70;57.90
19588;DHT22;9940;47.252;8.696;2023-04-24T14:51:02;18.10;58.20
19588;DHT22;9940;47.252;8.696;2023-04-24T14:53:27;17.40;58.90
19588;DHT22;9940;47.252;8.696;2023-04-24T14:55:56;16.90;59.60
19588;DHT22;9940;47.252;8.696;2023-04-24T14:58:23;16.40;60.00
19588;DHT22;9940;47.252;8.696;2023-04-24T15:00:51;16.10;60.70
19588;DHT22;9940;47.252;8.696;2023-04-24T15:03:19;16.10;61.40
19588;DHT22;9940;47.252;8.696;2023-04-24T15:05:48;17.80;61.40
19588;DHT22;9940;47.252;8.696;2023-04-24T15:08:14;20.60;59.00
19588;DHT22;9940;47.252;8.696;2023-04-24T15:10:42;22.40;56.80
19588;DHT22;9940;47.252;8.696;2023-04-24T15:13:08;24.10;55.00
19588;DHT22;9940;47.252;8.696;2023-04-24T15:15:36;25.50;53.10
19588;DHT22;9940;47.252;8.696;2023-04-24T15:18:05;26.70;51.50
19588;DHT22;9940;47.252;8.696;2023-04-24T15:20:33;26.20;50.70
19588;DHT22;9940;47.252;8.696;2023-04-24T15:22:59;25.10;50.70
19588;DHT22;9940;47.252;8.696;2023-04-24T15:25:30;23.70;51.30
19588;DHT22;9940;47.252;8.696;2023-04-24T15:28:01;22.60;52.50
19588;DHT22;9940;47.252;8.696;2023-04-24T15:30:30;23.30;52.60
19588;DHT22;9940;47.252;8.696;2023-04-24T15:33:02;24.50;51.80
19588;DHT22;9940;47.252;8.696;2023-04-24T15:35:30;24.70;50.70
19588;DHT22;9940;47.252;8.696;2023-04-24T15:38:00;23.60;50.70
19588;DHT22;9940;47.252;8.696;2023-04-24T15:40:26;22.40;51.50
19588;DHT22;9940;47.252;8.696;2023-04-24T15:42:52;22.10;52.20
19588;DHT22;9940;47.252;8.696;2023-04-24T15:45:22;22.90;51.90
19588;DHT22;9940;47.252;8.696;2023-04-24T15:47:47;23.30;51.00
19588;DHT22;9940;47.252;8.696;2023-04-24T15:50:15;22.90;50.90
19588;DHT22;9940;47.252;8.696;2023-04-24T15:52:42;22.60;51.00
19588;DHT22;9940;47.252;8.696;2023-04-24T15:55:11;22.30;51.00
19588;DHT22;9940;47.252;8.696;2023-04-24T15:57:42;21.80;51.30
19588;DHT22;9940;47.252;8.696;2023-04-24T16:00:08;21.00;51.70
19588;DHT22;9940;47.252;8.696;2023-04-24T16:02:37;20.40;52.80
19588;DHT22;9940;47.252;8.696;2023-04-24T16:05:03;19.80;52.90
19588;DHT22;9940;47.252;8.696;2023-04-24T16:07:30;19.30;53.30